Time;durP1;ratioP1;P1;durP2;ratioP2;P2;SDS_P1;SDS_P2;PMS_P1;PMS_P2;Temp;Humidity;BMP_temperature;BMP_pressure;BME280_temperature;BME280_humidity;BME280_pressure;Samples;Min_cycle;Max_cycle;Signal;HPM_P1;HPM_P2
2021/01/30 00:00:50;;;;;;;12.20;6.03;;;;;;;2.23;83.98;95952.00;1728249;83;21385;-67
2021/01/30 00:03:18;;;;;;;9.93;5.30;;;;;;;2.21;83.98;95946.22;1728411;83;21182;-68
2021/01/30 00:05:46;;;;;;;11.30;6.37;;;;;;;2.22;83.84;95944.44;1728186;83;21159;-68
2021/01/30 00:08:17;;;;;;;11.03;6.10;;;;;;;2.20;83.77;95945.07;1728099;83;21257;-68
2021/01/30 00:10:47;;;;;;;14.15;6.53;;;;;;;2.20;83.74;95941.23;1728051;83;21112;-67
2021/01/30 00:13:17;;;;;;;13.72;6.05;;;;;;;2.19;83.75;95946.82;1728457;81;21238;-66
2021/01/30 00:15:45;;;;;;;10.17;5.53;;;;;;;2.20;83.68;95942.52;1728180;83;21146;-68
2021/01/30 00:18:13;;;;;;;10.65;4.97;;;;;;;2.18;83.60;95933.67;1728297;82;21548;-65
2021/01/30 00:20:41;;;;;;;11.70;5.90;;;;;;;2.18;83.60;95935.45;1728224;83;21559;-69
2021/01/30 00:23:09;;;;;;;13.25;6.55;;;;;;;2.16;83.49;95931.75;1728224;83;21547;-68
2021/01/30 00:25:38;;;;;;;10.15;5.62;;;;;;;2.15;83.49;95927.56;1727992;83;21175;-69
2021/01/30 00:28:15;;;;;;;8.63;6.28;;;;;;;2.14;83.46;95922.09;1728421;83;21150;-68
2021/01/30 00:30:44;;;;;;;11.78;5.53;;;;;;;2.11;83.66;95924.14;1728194;83;21159;-68
2021/01/30 00:33:12;;;;;;;16.30;7.40;;;;;;;2.08;83.75;95915.46;1728613;83;21111;-68
2021/01/30 00:35:41;;;;;;;14.38;6.33;;;;;;;2.02;83.91;95910.45;1728213;81;21211;-68
2021/01/30 00:38:09;;;;;;;13.70;7.03;;;;;;;1.96;83.94;95917.39;1728436;83;21190;-68
2021/01/30 00:40:38;;;;;;;10.68;6.95;;;;;;;1.93;84.25;95902.78;1728224;83;21127;-69
2021/01/30 00:43:06;;;;;;;17.12;8.10;;;;;;;1.89;84.36;95905.63;1727967;81;21131;-65
2021/01/30 00:45:35;;;;;;;9.83;5.70;;;;;;;1.85;84.49;95902.20;1728263;83;21557;-64
2021/01/30 00:48:06;;;;;;;15.88;7.83;;;;;;;1.82;84.50;95911.45;1728603;83;21615;-68
2021/01/30 00:50:35;;;;;;;11.78;5.80;;;;;;;1.79;84.69;95894.59;1728497;81;21449;-64
2021/01/30 00:53:03;;;;;;;10.80;6.40;;;;;;;1.75;84.82;95898.88;1728304;83;21194;-65
2021/01/30 00:55:36;;;;;;;10.38;6.70;;;;;;;1.68;85.27;95899.88;1727782;81;21600;-65
2021/01/30 00:58:11;;;;;;;14.73;7.50;;;;;;;1.68;85.24;95898.60;1741198;81;21159;-63
2021/01/30 01:00:40;;;;;;;14.87;7.78;;;;;;;1.69;85.60;95894.30;1744427;81;21579;-65
2021/01/30 01:03:12;;;;;;;12.68;7.80;;;;;;;1.70;85.68;95898.01;1744920;81;21532;-63
2021/01/30 01:05:56;;;;;;;20.08;7.85;;;;;;;1.70;85.52;95890.80;1744482;81;21107;-64
2021/01/30 01:08:26;;;;;;;11.50;7.60;;;;;;;1.60;85.82;95894.64;1744926;81;21167;-64
2021/01/30 01:10:55;;;;;;;11.10;6.50;;;;;;;1.62;85.41;95888.13;1744861;81;21594;-68
2021/01/30 01:13:26;;;;;;;15.23;7.17;;;;;;;1.62;85.57;95895.33;1744666;81;21182;-65
2021/01/30 01:15:56;;;;;;;10.48;5.85;;;;;;;1.63;85.43;95894.86;1744769;81;21154;-64
2021/01/30 01:18:28;;;;;;;11.20;6.35;;;;;;;1.68;85.17;95891.40;1744774;81;21190;-64
2021/01/30 01:20:57;;;;;;;14.53;8.65;;;;;;;1.68;85.11;95896.52;1744753;81;21202;-68
2021/01/30 01:23:25;;;;;;;11.50;7.28;;;;;;;1.62;85.48;95904.75;1744663;81;21154;-73
2021/01/30 01:25:54;;;;;;;25.70;8.50;;;;;;;1.70;85.05;95907.43;1744621;81;21154;-66
2021/01/30 01:28:22;;;;;;;13.50;6.65;;;;;;;1.73;85.32;95916.10;1744615;81;21571;-67
2021/01/30 01:30:51;;;;;;;10.08;6.80;;;;;;;1.79;85.16;95907.39;1744542;81;21170;-70
2021/01/30 01:33:19;;;;;;;12.85;8.68;;;;;;;1.84;85.06;95891.63;1744696;81;21508;-69
2021/01/30 01:35:49;;;;;;;13.60;8.90;;;;;;;1.89;85.24;95886.44;1744300;81;21189;-69
2021/01/30 01:38:17;;;;;;;11.45;8.53;;;;;;;1.87;86.29;95882.38;1744595;81;21206;-68
2021/01/30 01:43:57;;;;;;;17.60;6.70;;;;;;;1.88;85.28;95883.53;1729649;81;21120;-69
2021/01/30 01:46:31;;;;;;;8.88;7.17;;;;;;;1.90;84.94;95875.26;1729818;83;21128;-66
2021/01/30 01:49:13;;;;;;;16.10;9.13;;;;;;;1.95;84.76;95877.37;1692765;83;21163;-69
2021/01/30 01:51:49;;;;;;;11.88;8.33;;;;;;;1.96;84.66;95877.72;1730037;81;21179;-69
2021/01/30 01:54:21;;;;;;;9.80;6.60;;;;;;;1.97;84.50;95882.36;1729993;83;21162;-69
2021/01/30 01:56:55;;;;;;;9.50;6.83;;;;;;;1.97;84.63;95880.61;1729923;83;21536;-65
2021/01/30 01:59:30;;;;;;;14.95;8.55;;;;;;;2.01;84.57;95876.83;1692131;83;21184;-65
2021/01/30 02:01:59;;;;;;;15.70;9.03;;;;;;;2.08;84.38;95887.30;1729834;82;21179;-65
2021/01/30 02:04:28;;;;;;;13.15;7.17;;;;;;;2.08;84.20;95886.83;1729636;82;21187;-64
2021/01/30 02:06:56;;;;;;;15.63;7.60;;;;;;;2.11;84.15;95881.89;1729762;83;21155;-63
2021/01/30 02:09:25;;;;;;;13.95;7.28;;;;;;;2.14;84.05;95885.47;1729768;82;21166;-65
2021/01/30 02:12:09;;;;;;;15.83;9.20;;;;;;;2.16;83.98;95879.72;1692379;85;21215;-65
2021/01/30 02:14:42;;;;;;;14.05;7.60;;;;;;;2.19;83.92;95882.00;1728481;81;21170;-63
2021/01/30 02:17:27;;;;;;;16.57;8.85;;;;;;;2.12;83.70;95887.35;1729787;83;21238;-65
2021/01/30 02:20:16;;;;;;;17.43;8.40;;;;;;;2.06;83.80;95890.02;1692895;85;21176;-63
2021/01/30 02:23:02;;;;;;;11.08;6.97;;;;;;;2.01;83.78;95885.79;1680145;84;21868;-65
2021/01/30 02:26:12;;;;;;;12.53;8.23;;;;;;;1.91;84.33;95892.20;1690151;83;21660;-63
2021/01/30 02:28:54;;;;;;;8.83;6.28;;;;;;;1.84;84.69;95892.91;1662141;86;21584;-63
2021/01/30 02:32:17;;;;;;;12.03;6.67;;;;;;;1.86;84.52;95902.55;1662269;86;21220;-63
2021/01/30 02:35:27;;;;;;;11.75;7.70;;;;;;;1.88;84.39;95918.09;1627323;88;21176;-63
2021/01/30 02:38:12;;;;;;;10.98;6.58;;;;;;;1.85;85.17;95913.72;1662401;86;21211;-64
2021/01/30 02:40:47;;;;;;;10.93;6.25;;;;;;;1.78;85.50;95901.16;1627913;88;21207;-63
2021/01/30 02:43:20;;;;;;;13.13;7.85;;;;;;;1.71;85.90;95906.00;1627202;88;21693;-65
2021/01/30 02:45:53;;;;;;;13.32;8.10;;;;;;;1.71;85.77;95905.22;1627131;88;21642;-65
2021/01/30 02:59:19;;;;;;;8.75;6.35;;;;;;;1.70;86.59;95894.17;1763222;81;22398;-64
2021/01/30 03:01:48;;;;;;;12.33;6.28;;;;;;;1.61;87.42;95888.59;1698685;83;21150;-64
2021/01/30 03:04:24;;;;;;;15.93;8.50;;;;;;;1.64;86.92;95891.34;1793014;80;21555;-69
2021/01/30 03:07:06;;;;;;;13.05;8.30;;;;;;;1.62;86.88;95888.13;1793050;80;21290;-69
2021/01/30 03:10:07;;;;;;;12.58;7.03;;;;;;;1.61;87.06;95891.16;1793320;80;21185;-67
2021/01/30 03:13:03;;;;;;;10.90;7.28;;;;;;;1.52;87.63;95892.47;1793101;80;21154;-68
2021/01/30 03:15:46;;;;;;;10.30;6.65;;;;;;;1.49;87.88;95879.45;1793330;80;21190;-69
2021/01/30 03:18:19;;;;;;;12.45;8.18;;;;;;;1.51;87.70;95875.50;1793128;80;21558;-68
2021/01/30 03:20:48;;;;;;;9.08;5.80;;;;;;;1.51;87.34;95876.31;1790598;80;21202;-68
2021/01/30 03:23:18;;;;;;;13.43;8.60;;;;;;;1.56;87.00;95871.56;1793393;80;21126;-68
2021/01/30 03:25:47;;;;;;;11.83;8.10;;;;;;;1.62;86.82;95868.47;1793046;80;21296;-67
2021/01/30 03:28:19;;;;;;;15.10;8.58;;;;;;;1.67;86.93;95873.17;1793272;79;21096;-67
2021/01/30 03:30:48;;;;;;;17.35;9.18;;;;;;;1.72;86.76;95870.98;1792983;80;21150;-65
2021/01/30 03:33:16;;;;;;;12.28;8.38;;;;;;;1.79;86.69;95865.17;1793134;80;21277;-66
2021/01/30 03:35:44;;;;;;;13.48;8.43;;;;;;;1.87;86.52;95865.28;1793514;80;21136;-65
2021/01/30 03:38:12;;;;;;;12.75;8.10;;;;;;;1.94;86.37;95857.86;1793227;80;21514;-65
2021/01/30 03:40:43;;;;;;;12.63;8.68;;;;;;;1.97;86.13;95858.05;1792977;80;21154;-63
2021/01/30 03:43:13;;;;;;;14.13;9.28;;;;;;;2.04;86.08;95858.62;1792972;80;21340;-63
2021/01/30 03:45:41;;;;;;;14.53;8.15;;;;;;;2.12;85.98;95851.04;1792947;80;21280;-65
2021/01/30 03:48:10;;;;;;;18.87;9.48;;;;;;;2.19;85.83;95853.36;1793201;80;21131;-65
2021/01/30 03:50:38;;;;;;;14.65;8.95;;;;;;;2.20;85.46;95847.30;1792984;80;21138;-65
2021/01/30 03:53:09;;;;;;;14.43;7.92;;;;;;;2.19;85.43;95852.55;1793203;80;21131;-65
2021/01/30 03:55:42;;;;;;;17.70;9.33;;;;;;;2.23;85.52;95852.59;1793070;80;21194;-65
2021/01/30 03:58:11;;;;;;;19.35;7.97;;;;;;;2.32;85.41;95851.28;1793088;80;21142;-64
2021/01/30 04:00:39;;;;;;;16.05;8.50;;;;;;;2.38;85.17;95844.76;1792465;80;21179;-65
2021/01/30 04:03:07;;;;;;;19.70;9.33;;;;;;;2.43;84.92;95848.17;1792618;80;21127;-65
2021/01/30 04:05:35;;;;;;;16.17;8.20;;;;;;;2.34;84.62;95844.24;1792708;80;21138;-65
2021/01/30 04:08:04;;;;;;;15.45;9.10;;;;;;;2.33;84.73;95849.53;1792891;80;21187;-69
2021/01/30 04:10:36;;;;;;;15.68;9.20;;;;;;;2.30;84.74;95850.59;1793130;80;21170;-69
2021/01/30 04:13:09;;;;;;;13.00;6.97;;;;;;;2.22;84.80;95845.38;1792970;80;21135;-69
2021/01/30 04:15:42;;;;;;;13.83;7.12;;;;;;;2.19;84.86;95854.64;1792435;80;21191;-65
2021/01/30 04:18:32;;;;;;;14.95;8.75;;;;;;;2.15;84.98;95859.70;1792628;80;21265;-64
2021/01/30 04:21:00;;;;;;;15.70;8.53;;;;;;;2.16;85.05;95860.52;1716873;83;21737;-65
2021/01/30 04:23:28;;;;;;;15.93;7.92;;;;;;;2.16;85.01;95858.77;1710580;83;21181;-64
2021/01/30 04:25:56;;;;;;;13.75;8.00;;;;;;;2.18;84.97;95872.72;1709550;83;21267;-65
2021/01/30 04:28:26;;;;;;;13.62;7.83;;;;;;;2.18;84.86;95867.60;1712291;83;21198;-64
2021/01/30 04:30:55;;;;;;;17.80;8.98;;;;;;;2.17;84.70;95861.67;1709927;83;21147;-65
2021/01/30 04:33:24;;;;;;;14.55;8.05;;;;;;;2.11;84.61;95868.63;1715000;83;21592;-68
2021/01/30 04:35:55;;;;;;;11.70;7.00;;;;;;;2.13;84.60;95873.61;1714380;83;21291;-69
2021/01/30 04:38:23;;;;;;;16.00;8.60;;;;;;;2.12;84.55;95874.08;1714159;83;21238;-69
2021/01/30 04:41:09;;;;;;;11.40;6.30;;;;;;;2.15;84.51;95872.98;1712766;83;21231;-69
2021/01/30 04:43:49;;;;;;;16.55;7.42;;;;;;;2.15;84.53;95881.47;1710261;83;21179;-68
2021/01/30 04:46:31;;;;;;;12.05;8.43;;;;;;;2.14;84.76;95887.53;1715690;83;21726;-69
2021/01/30 04:49:19;;;;;;;14.70;8.03;;;;;;;2.13;84.70;95883.38;1710582;83;21138;-69
2021/01/30 04:52:02;;;;;;;;;;;;;;;2.17;84.68;95889.84;1720993;83;21170;-68
2021/01/30 04:58:44;;;;;;;16.50;7.72;;;;;;;2.20;84.62;95886.98;1648082;84;21632;-68
2021/01/30 05:01:33;;;;;;;13.53;7.62;;;;;;;2.20;84.44;95886.98;1658898;85;21590;-67
2021/01/30 05:04:16;;;;;;;13.95;8.98;;;;;;;2.21;84.58;95884.77;1657733;86;21209;-68
2021/01/30 05:07:01;;;;;;;11.20;6.87;;;;;;;2.17;85.05;95874.47;1659498;84;21185;-68
2021/01/30 05:09:53;;;;;;;11.45;7.35;;;;;;;2.14;85.00;95876.52;1659419;84;21194;-69
2021/01/30 05:13:10;;;;;;;16.65;8.85;;;;;;;2.15;84.93;95875.08;1664585;84;21201;-67
2021/01/30 05:18:51;;;;;;;10.28;7.25;;;;;;;2.10;85.28;95877.24;1731516;81;21216;-70
2021/01/30 05:21:24;;;;;;;15.50;8.60;;;;;;;2.07;85.37;95881.84;1734489;81;21199;-65
2021/01/30 05:23:54;;;;;;;14.95;9.43;;;;;;;2.04;85.85;95875.73;1715191;81;21636;-63
2021/01/30 05:26:45;;;;;;;14.55;8.80;;;;;;;1.96;86.94;95873.06;1737020;81;21167;-66
2021/01/30 05:29:34;;;;;;;18.62;7.92;;;;;;;1.90;87.83;95878.28;1743422;79;21181;-70
2021/01/30 05:32:30;;;;;;;12.23;7.95;;;;;;;1.93;87.68;95881.03;1751278;80;21190;-69
2021/01/30 05:35:09;;;;;;;11.18;7.45;;;;;;;1.97;87.17;95881.89;1685704;84;21279;-68
2021/01/30 05:41:18;;;;;;;12.80;6.87;;;;;;;2.02;86.44;95885.31;1677440;81;21668;-68
2021/01/30 05:44:18;;;;;;;11.68;7.70;;;;;;;2.17;86.22;95901.36;1819826;79;23558;-65
2021/01/30 05:46:50;;;;;;;16.05;8.68;;;;;;;2.19;86.17;95916.56;1793064;80;21298;-64
2021/01/30 05:52:28;;;;;;;20.05;7.80;;;;;;;2.30;85.97;95921.03;1634199;88;21231;-64
2021/01/30 05:54:57;;;;;;;13.68;8.78;;;;;;;2.34;85.96;95932.61;1639228;86;21194;-68
2021/01/30 05:57:26;;;;;;;11.68;7.03;;;;;;;2.37;86.01;95933.59;1639121;86;21229;-64
2021/01/30 05:59:58;;;;;;;12.33;8.10;;;;;;;2.33;86.55;95932.27;1639428;86;21204;-68
2021/01/30 06:02:31;;;;;;;14.35;8.80;;;;;;;2.35;86.38;95941.09;1651048;85;21160;-68
2021/01/30 06:05:06;;;;;;;9.35;6.12;;;;;;;2.26;86.69;95938.09;1651080;85;21161;-64
2021/01/30 06:07:37;;;;;;;10.28;5.40;;;;;;;2.40;86.16;95940.21;1650985;85;21200;-68
2021/01/30 06:10:28;;;;;;;26.97;9.70;;;;;;;2.49;85.94;95944.97;1651043;85;21220;-64
2021/01/30 06:13:12;;;;;;;9.13;5.90;;;;;;;2.51;85.25;95948.98;1651033;85;21188;-64
2021/01/30 06:15:45;;;;;;;10.85;7.58;;;;;;;2.49;84.84;95940.63;1650911;85;21197;-64
2021/01/30 06:18:34;;;;;;;10.45;7.08;;;;;;;2.53;84.97;95960.39;1650913;85;21163;-64
2021/01/30 06:21:14;;;;;;;10.82;7.62;;;;;;;2.47;85.13;95957.91;1651157;86;21144;-63
2021/01/30 06:24:02;;;;;;;10.90;6.22;;;;;;;2.57;85.02;95954.81;1650738;85;21204;-64
2021/01/30 06:26:41;;;;;;;13.95;7.17;;;;;;;2.58;84.99;95949.22;1651189;85;21252;-63
2021/01/30 06:33:33;;;;;;;12.50;6.62;;;;;;;2.61;85.15;95959.98;1683818;84;21563;-65
2021/01/30 06:36:18;;;;;;;6.25;3.50;;;;;;;2.61;84.91;95963.02;1683588;85;21173;-65
2021/01/30 06:38:55;;;;;;;5.05;2.80;;;;;;;2.66;84.96;95951.88;1683936;84;21182;-69
2021/01/30 06:41:32;;;;;;;9.28;4.03;;;;;;;2.80;85.34;95950.12;1683749;85;21185;-69
2021/01/30 06:44:20;;;;;;;9.13;4.47;;;;;;;2.88;85.02;95942.50;1683603;84;21195;-66
2021/01/30 06:47:12;;;;;;;11.57;4.62;;;;;;;2.94;84.84;95947.54;1683639;85;21182;-65
2021/01/30 06:49:54;;;;;;;9.15;3.98;;;;;;;2.97;84.60;95952.37;1683487;85;21142;-65
2021/01/30 06:52:26;;;;;;;10.40;5.20;;;;;;;2.97;84.12;95946.77;1683488;84;21146;-65
2021/01/30 07:04:40;;;;;;;10.05;4.62;;;;;;;3.01;84.04;95950.66;1654949;85;21234;-67
2021/01/30 07:07:27;;;;;;;10.32;5.62;;;;;;;3.07;83.89;95939.03;1722198;83;21349;-71
2021/01/30 07:10:10;;;;;;;11.50;5.53;;;;;;;3.12;83.84;95938.09;1722089;83;21115;-68
2021/01/30 07:12:47;;;;;;;10.72;5.78;;;;;;;3.18;83.80;95936.24;1690205;83;21158;-70
2021/01/30 07:15:23;;;;;;;8.23;4.90;;;;;;;3.22;83.74;95939.66;1722051;83;21369;-70
2021/01/30 07:18:19;;;;;;;10.25;5.60;;;;;;;3.25;83.69;95941.92;1704154;83;21542;-68
2021/01/30 07:21:15;;;;;;;7.93;3.57;;;;;;;3.06;83.69;95894.63;1721586;82;21166;-68
2021/01/30 07:24:30;;;;;;;10.28;4.67;;;;;;;3.35;83.47;95942.64;1721611;83;21600;-69
2021/01/30 07:27:27;;;;;;;10.95;5.70;;;;;;;3.43;83.44;95948.79;1721861;83;21187;-71
2021/01/30 07:30:13;;;;;;;6.83;3.85;;;;;;;3.48;83.11;95944.84;1774760;81;21699;-68
2021/01/30 07:32:59;;;;;;;9.90;5.12;;;;;;;3.52;82.84;95940.21;1742914;82;21112;-68
2021/01/30 07:35:38;;;;;;;14.25;6.17;;;;;;;3.59;82.99;95949.73;1751438;81;21139;-70
2021/01/30 07:38:29;;;;;;;9.20;5.70;;;;;;;3.63;82.92;95941.26;1752034;82;21111;-65
2021/01/30 07:41:37;;;;;;;8.38;5.20;;;;;;;3.67;82.82;95955.41;1751749;82;21222;-64
2021/01/30 07:44:10;;;;;;;7.67;4.37;;;;;;;3.73;82.51;95945.37;1751332;82;21127;-65
2021/01/30 07:46:43;;;;;;;5.17;4.00;;;;;;;3.85;82.43;95948.97;1751540;82;21536;-71
2021/01/30 07:49:22;;;;;;;4.85;3.25;;;;;;;3.94;81.85;95945.02;1751438;82;21227;-69
2021/01/30 07:52:09;;;;;;;7.17;3.85;;;;;;;4.06;81.44;95946.84;1751766;82;21197;-71
2021/01/30 07:54:45;;;;;;;8.70;3.80;;;;;;;4.17;81.25;95947.40;1751461;82;21595;-66
2021/01/30 07:57:56;;;;;;;7.05;3.50;;;;;;;4.27;80.55;95946.02;1750937;82;21171;-67
2021/01/30 08:00:49;;;;;;;8.73;4.35;;;;;;;4.37;79.93;95947.98;1745763;81;21112;-66
2021/01/30 08:03:47;;;;;;;7.17;4.42;;;;;;;4.48;78.78;95946.91;1751633;82;21150;-66
2021/01/30 08:06:30;;;;;;;6.35;3.25;;;;;;;4.59;78.63;95942.80;1751345;81;21131;-64
2021/01/30 08:09:10;;;;;;;6.62;3.37;;;;;;;4.72;78.68;95943.15;1751492;82;21148;-71
2021/01/30 08:11:42;;;;;;;9.88;4.55;;;;;;;4.86;78.19;95952.86;1751721;82;21317;-68
2021/01/30 08:14:55;;;;;;;4.47;2.60;;;;;;;5.00;77.72;95961.25;1751437;82;21607;-69
2021/01/30 08:17:30;;;;;;;5.87;3.35;;;;;;;5.11;77.63;95954.99;1745158;82;21107;-71
2021/01/30 08:20:09;;;;;;;7.05;3.62;;;;;;;5.26;77.31;95955.98;1751626;82;21150;-71
2021/01/30 08:23:05;;;;;;;7.85;4.17;;;;;;;5.38;77.32;95965.49;1751857;82;21111;-70
2021/01/30 08:25:55;;;;;;;9.80;4.35;;;;;;;5.48;76.83;95968.73;1751405;82;21185;-66
2021/01/30 08:28:37;;;;;;;7.22;3.33;;;;;;;5.58;76.62;95968.09;1748119;80;21136;-66
2021/01/30 08:31:06;;;;;;;7.53;3.72;;;;;;;5.68;76.49;95977.77;1742154;82;21199;-67
2021/01/30 08:34:19;;;;;;;8.10;3.55;;;;;;;5.79;76.63;95972.30;1748200;82;21235;-67
2021/01/30 08:36:51;;;;;;;5.10;3.05;;;;;;;5.92;76.94;95982.92;1748025;82;21687;-65
2021/01/30 08:39:27;;;;;;;4.05;2.50;;;;;;;6.05;76.37;95993.55;1741881;82;21694;-66
2021/01/30 08:41:59;;;;;;;4.37;2.55;;;;;;;6.15;76.65;95994.66;1741970;82;21162;-65
2021/01/30 08:44:56;;;;;;;3.45;2.52;;;;;;;6.27;76.62;95999.80;1747681;82;21175;-66
2021/01/30 08:47:36;;;;;;;7.57;3.27;;;;;;;6.39;76.32;96001.07;1748451;81;21239;-70
2021/01/30 08:50:16;;;;;;;3.77;2.17;;;;;;;6.67;76.86;95997.62;1735564;82;21180;-71
2021/01/30 08:52:55;;;;;;;2.10;1.90;;;;;;;7.02;71.90;96003.61;1742255;82;21143;-70
2021/01/30 08:55:48;;;;;;;4.08;1.75;;;;;;;7.42;73.01;96003.09;1742682;82;21155;-71
2021/01/30 08:58:40;;;;;;;3.45;1.32;;;;;;;7.89;74.38;96014.56;1741927;82;21159;-68
2021/01/30 09:11:49;;;;;;;0.85;0.80;;;;;;;9.60;66.97;96025.52;1721705;80;21199;-71
2021/01/30 09:14:22;;;;;;;0.98;0.60;;;;;;;9.87;66.08;96022.20;1735600;83;21169;-71
2021/01/30 09:17:15;;;;;;;0.72;0.53;;;;;;;9.92;64.13;96017.77;1735800;83;21210;-71
2021/01/30 09:27:08;;;;;;;0.23;0.23;;;;;;;9.77;64.63;96022.98;1764418;80;21707;-72
2021/01/30 09:29:46;;;;;;;1.70;0.62;;;;;;;9.56;64.80;96011.32;1809420;79;21568;-70
2021/01/30 09:32:30;;;;;;;0.93;0.45;;;;;;;9.51;64.08;96030.48;1809659;79;21215;-71
2021/01/30 09:38:30;;;;;;;1.02;0.50;;;;;;;9.29;63.16;96018.00;1814846;78;21162;-70
2021/01/30 09:41:27;;;;;;;0.50;0.50;;;;;;;9.42;64.36;96019.42;1829624;78;21174;-71
2021/01/30 09:44:21;;;;;;;;;;;;;;;9.62;63.27;96007.17;1832338;78;21137;-69
2021/01/30 09:46:54;;;;;;;0.68;0.55;;;;;;;9.92;63.63;96000.91;1811965;78;20180;-71
2021/01/30 09:53:05;;;;;;;0.50;0.40;;;;;;;11.05;64.13;95998.11;1794025;79;21613;-71
2021/01/30 09:55:33;;;;;;;0.50;0.50;;;;;;;11.72;61.96;95991.14;1816947;79;21206;-71
2021/01/30 09:58:12;;;;;;;0.95;0.80;;;;;;;11.93;56.36;95992.78;1816367;78;21624;-70
2021/01/30 10:00:45;;;;;;;1.02;0.60;;;;;;;12.10;57.90;95975.77;1816436;79;21619;-70
2021/01/30 10:03:22;;;;;;;1.98;0.53;;;;;;;12.09;56.91;95982.49;1816471;79;21139;-72
2021/01/30 10:05:53;;;;;;;;;;;;;;;12.03;52.74;95966.36;1819010;79;21126;-71
2021/01/30 10:08:31;;;;;;;1.55;0.75;;;;;;;12.52;56.56;95964.15;1816685;79;20170;-71
2021/01/30 10:11:20;;;;;;;1.22;0.65;;;;;;;13.01;57.28;95962.80;1816650;79;21164;-72
2021/01/30 10:13:57;;;;;;;0.65;0.40;;;;;;;13.48;54.82;95954.60;1816279;78;21096;-66
2021/01/30 10:16:27;;;;;;;0.62;0.42;;;;;;;13.87;54.55;95966.59;1816194;78;21155;-70
2021/01/30 10:22:21;;;;;;;0.30;0.30;;;;;;;14.46;54.96;95958.33;1667427;86;21293;-73
2021/01/30 10:24:52;;;;;;;1.27;0.70;;;;;;;14.70;54.11;95973.16;1677603;85;21454;-71
2021/01/30 10:27:25;;;;;;;0.93;0.55;;;;;;;14.52;49.68;95963.98;1677845;85;21257;-67
2021/01/30 10:29:57;;;;;;;0.80;0.45;;;;;;;14.35;51.38;95962.14;1669986;85;21278;-66
2021/01/30 10:32:42;;;;;;;1.00;0.60;;;;;;;13.99;51.48;95961.50;1677285;84;21174;-67
2021/01/30 10:35:51;;;;;;;0.40;0.40;;;;;;;13.55;49.72;95961.87;1677314;85;21650;-71
2021/01/30 10:38:22;;;;;;;1.80;0.78;;;;;;;13.12;50.55;95955.67;1669738;86;21332;-67
2021/01/30 10:41:01;;;;;;;0.85;0.50;;;;;;;12.60;49.05;95956.63;1677225;85;21287;-66
2021/01/30 10:43:37;;;;;;;0.47;0.35;;;;;;;12.74;53.09;95952.97;1677226;85;21166;-66
2021/01/30 10:46:20;;;;;;;0.57;0.45;;;;;;;12.75;49.74;95959.29;1669909;86;21194;-66
2021/01/30 10:48:50;;;;;;;1.67;0.70;;;;;;;12.54;48.78;95922.27;1677343;85;21170;-66
2021/01/30 10:51:24;;;;;;;1.10;0.62;;;;;;;13.20;51.90;95969.77;1677223;85;21211;-70
2021/01/30 10:54:20;;;;;;;0.73;0.40;;;;;;;13.64;52.76;95971.06;1669996;86;21178;-64
2021/01/30 10:57:21;;;;;;;0.85;0.50;;;;;;;13.75;45.30;95957.84;1677384;84;21123;-66
2021/01/30 11:00:03;;;;;;;1.07;0.78;;;;;;;13.81;48.06;95961.44;1656751;85;21164;-66
2021/01/30 11:02:49;;;;;;;1.02;0.60;;;;;;;14.63;49.27;95960.65;1669972;86;21240;-67
2021/01/30 11:05:24;;;;;;;1.52;0.93;;;;;;;14.95;43.40;95967.86;1676831;85;21150;-71
2021/01/30 11:08:03;;;;;;;1.27;0.70;;;;;;;15.05;45.76;95967.36;1677717;84;21587;-71
2021/01/30 11:10:47;;;;;;;1.50;0.70;;;;;;;14.88;45.65;95957.19;1670343;86;21194;-74
2021/01/30 11:13:22;;;;;;;1.00;0.60;;;;;;;14.64;46.37;95957.53;1678028;85;21170;-72
2021/01/30 11:16:02;;;;;;;3.00;0.60;;;;;;;14.05;47.21;95950.20;1677504;85;21218;-71
2021/01/30 11:22:18;;;;;;;0.93;0.42;;;;;;;13.31;46.82;95964.70;1741341;82;21596;-71
2021/01/30 11:24:53;;;;;;;2.90;0.93;;;;;;;12.95;47.15;95959.23;1673005;84;21254;-71
2021/01/30 11:33:59;;;;;;;3.25;0.93;;;;;;;11.92;49.18;95960.46;1787262;78;21130;-66
2021/01/30 11:36:28;;;;;;;0.78;0.68;;;;;;;11.61;51.46;95964.89;1788643;79;21230;-66
2021/01/30 11:39:01;;;;;;;1.15;0.80;;;;;;;11.44;53.10;95956.16;1788599;79;21692;-67
2021/01/30 11:41:30;;;;;;;2.92;0.90;;;;;;;11.32;52.41;95956.42;1788561;79;21161;-66
2021/01/30 11:43:59;;;;;;;2.02;0.57;;;;;;;11.08;51.38;95966.05;1788624;79;21149;-66
2021/01/30 11:46:27;;;;;;;2.72;1.37;;;;;;;11.02;53.08;95969.41;1788614;79;21146;-71
2021/01/30 11:48:56;;;;;;;1.42;0.70;;;;;;;10.91;53.66;95973.86;1788702;79;21220;-72
2021/01/30 11:54:45;;;;;;;0.57;0.45;;;;;;;10.68;53.73;95965.06;1762078;80;21213;-70
2021/01/30 11:57:14;;;;;;;0.57;0.57;;;;;;;10.55;52.25;95973.25;1741194;81;21148;-71
2021/01/30 11:59:42;;;;;;;1.85;0.70;;;;;;;10.51;53.13;95973.33;1839311;78;21131;-70
2021/01/30 12:02:34;;;;;;;1.35;0.55;;;;;;;10.39;52.93;95976.95;1839769;78;21130;-70
2021/01/30 12:05:07;;;;;;;0.93;0.53;;;;;;;10.35;54.60;95976.52;1839571;78;21170;-70
2021/01/30 12:07:35;;;;;;;0.70;0.57;;;;;;;10.18;53.79;95986.09;1839928;78;21099;-71
2021/01/30 12:13:05;;;;;;;1.95;0.60;;;;;;;9.86;54.52;95988.67;1752977;81;21134;-72
2021/01/30 12:15:34;;;;;;;0.70;0.55;;;;;;;9.65;54.31;95968.73;1753308;82;21238;-70
2021/01/30 12:18:09;;;;;;;1.05;0.60;;;;;;;9.62;54.44;95973.00;1752672;81;21622;-71
2021/01/30 12:20:38;;;;;;;0.85;0.57;;;;;;;9.46;54.83;95980.52;1753129;80;21095;-72
2021/01/30 12:23:07;;;;;;;3.25;0.80;;;;;;;9.45;55.30;95978.13;1752850;80;21206;-70
2021/01/30 12:25:35;;;;;;;0.98;0.50;;;;;;;9.43;55.96;95976.20;1743210;82;21202;-71
2021/01/30 12:28:05;;;;;;;1.72;0.62;;;;;;;9.48;55.78;95964.80;1752803;81;21158;-66
2021/01/30 12:30:43;;;;;;;1.52;0.90;;;;;;;9.56;55.61;95969.05;1753007;81;21146;-71
2021/01/30 12:33:11;;;;;;;0.80;0.50;;;;;;;9.76;55.78;95975.23;1752908;80;21115;-70
2021/01/30 12:35:41;;;;;;;3.10;0.50;;;;;;;9.85;55.54;95983.17;1752854;81;21552;-71
2021/01/30 12:38:09;;;;;;;1.27;0.98;;;;;;;9.82;54.62;95972.69;1752824;80;21131;-72
2021/01/30 12:40:42;;;;;;;0.53;0.40;;;;;;;9.78;55.13;95983.61;1753014;80;21186;-71
2021/01/30 12:43:16;;;;;;;0.95;0.55;;;;;;;9.64;53.92;95980.11;1752708;81;21150;-67
2021/01/30 12:45:44;;;;;;;1.27;0.65;;;;;;;9.62;55.39;95971.70;1752856;81;21185;-67
2021/01/30 12:48:13;;;;;;;1.90;0.88;;;;;;;9.55;54.59;95966.95;1752881;81;21119;-66
2021/01/30 12:50:43;;;;;;;1.07;0.57;;;;;;;9.49;55.51;95969.00;1752725;81;21257;-67
2021/01/30 12:53:12;;;;;;;1.40;0.90;;;;;;;9.62;56.11;95967.01;1752750;81;21586;-66
2021/01/30 12:55:41;;;;;;;2.15;0.85;;;;;;;9.76;53.61;95962.27;1752987;82;21154;-66
2021/01/30 12:58:23;;;;;;;2.17;0.80;;;;;;;10.64;55.62;95953.95;1752923;81;21229;-66
2021/01/30 13:00:53;;;;;;;1.75;0.60;;;;;;;11.19;54.64;95952.50;1753088;81;21277;-66
2021/01/30 13:03:23;;;;;;;1.65;0.72;;;;;;;11.23;49.53;95946.42;1753273;81;21165;-72
2021/01/30 13:05:57;;;;;;;1.52;0.80;;;;;;;11.39;52.54;95936.97;1753050;82;21154;-71
2021/01/30 13:08:27;;;;;;;0.70;0.40;;;;;;;11.44;52.07;95939.76;1752728;81;21578;-66
2021/01/30 13:10:55;;;;;;;4.40;0.60;;;;;;;11.39;53.06;95935.67;1753020;81;21220;-73
2021/01/30 13:13:23;;;;;;;1.10;0.65;;;;;;;11.10;50.03;95949.77;1752886;81;21690;-71
2021/01/30 13:15:52;;;;;;;1.07;0.78;;;;;;;10.97;50.44;95960.13;1752610;81;21309;-71
2021/01/30 13:18:21;;;;;;;1.00;0.47;;;;;;;10.85;53.66;95959.88;1752730;80;21166;-71
2021/01/30 13:23:38;;;;;;;1.35;0.68;;;;;;;10.47;52.61;95958.14;1769289;81;21573;-70
2021/01/30 13:26:06;;;;;;;2.12;0.50;;;;;;;10.30;53.32;95965.12;1769691;81;21273;-72
2021/01/30 13:28:35;;;;;;;0.88;0.60;;;;;;;10.18;53.82;95960.15;1727492;82;21593;-72
2021/01/30 13:31:04;;;;;;;0.72;0.53;;;;;;;10.05;53.70;95963.89;1727477;82;21129;-71
2021/01/30 13:33:33;;;;;;;0.93;0.60;;;;;;;9.94;54.07;95962.13;1727557;82;21208;-70
2021/01/30 13:36:01;;;;;;;0.50;0.30;;;;;;;9.76;53.55;95968.27;1727768;82;21208;-67
2021/01/30 13:38:29;;;;;;;0.70;0.50;;;;;;;9.72;53.80;95962.34;1727571;82;21176;-66
2021/01/30 13:40:58;;;;;;;2.08;0.40;;;;;;;9.58;54.38;95976.14;1727794;82;21162;-72
2021/01/30 13:43:26;;;;;;;1.45;0.45;;;;;;;9.48;55.15;95969.48;1727596;82;21278;-70
2021/01/30 13:45:54;;;;;;;0.30;0.30;;;;;;;9.38;55.08;95975.94;1727269;82;21585;-69
2021/01/30 13:48:23;;;;;;;1.27;0.42;;;;;;;9.32;55.82;95994.32;1727223;83;21150;-66
2021/01/30 13:50:55;;;;;;;0.88;0.53;;;;;;;9.26;56.29;95980.01;1727663;83;21867;-64